sensor_id;sensor_type;location;lat;lon;timestamp;P1;durP1;ratioP1;P2;durP2;ratioP2
15946;SDS011;8072;52.554;7.966;2024-03-02T00:00:07;9.73;;;6.23;;
15946;SDS011;8072;52.554;7.966;2024-03-02T00:05:11;8.37;;;5.80;;
15946;SDS011;8072;52.554;7.966;2024-03-02T00:07:38;7.83;;;5.63;;
15946;SDS011;8072;52.554;7.966;2024-03-02T00:10:10;10.33;;;6.17;;
15946;SDS011;8072;52.554;7.966;2024-03-02T00:12:39;7.83;;;5.50;;
15946;SDS011;8072;52.554;7.966;2024-03-02T00:17:55;8.73;;;5.27;;
15946;SDS011;8072;52.554;7.966;2024-03-02T00:20:22;9.70;;;5.53;;
15946;SDS011;8072;52.554;7.966;2024-03-02T00:22:48;8.67;;;5.20;;
15946;SDS011;8072;52.554;7.966;2024-03-02T00:25:19;7.47;;;5.23;;
15946;SDS011;8072;52.554;7.966;2024-03-02T00:27:49;6.47;;;5.20;;
15946;SDS011;8072;52.554;7.966;2024-03-02T00:33:09;8.97;;;4.93;;
15946;SDS011;8072;52.554;7.966;2024-03-02T00:35:36;7.10;;;5.03;;
15946;SDS011;8072;52.554;7.966;2024-03-02T00:38:07;6.67;;;4.90;;
15946;SDS011;8072;52.554;7.966;2024-03-02T00:40:33;6.90;;;5.30;;
15946;SDS011;8072;52.554;7.966;2024-03-02T00:42:59;7.50;;;5.20;;
15946;SDS011;8072;52.554;7.966;2024-03-02T00:45:26;8.53;;;5.23;;
15946;SDS011;8072;52.554;7.966;2024-03-02T00:47:53;7.57;;;5.50;;
15946;SDS011;8072;52.554;7.966;2024-03-02T00:50:19;7.70;;;4.40;;
15946;SDS011;8072;52.554;7.966;2024-03-02T00:52:45;8.07;;;4.50;;
15946;SDS011;8072;52.554;7.966;2024-03-02T00:55:13;8.50;;;4.83;;
15946;SDS011;8072;52.554;7.966;2024-03-02T00:57:39;8.97;;;5.33;;
15946;SDS011;8072;52.554;7.966;2024-03-02T01:00:09;6.13;;;4.43;;
15946;SDS011;8072;52.554;7.966;2024-03-02T01:02:37;8.23;;;5.20;;
15946;SDS011;8072;52.554;7.966;2024-03-02T01:05:03;5.83;;;4.50;;
15946;SDS011;8072;52.554;7.966;2024-03-02T01:07:30;7.03;;;4.80;;
15946;SDS011;8072;52.554;7.966;2024-03-02T01:09:56;8.23;;;4.27;;
15946;SDS011;8072;52.554;7.966;2024-03-02T01:12:21;6.93;;;4.33;;
15946;SDS011;8072;52.554;7.966;2024-03-02T01:14:47;7.03;;;5.20;;
15946;SDS011;8072;52.554;7.966;2024-03-02T01:17:13;8.47;;;5.23;;
15946;SDS011;8072;52.554;7.966;2024-03-02T01:19:41;8.40;;;5.33;;
15946;SDS011;8072;52.554;7.966;2024-03-02T01:22:07;7.97;;;5.07;;
15946;SDS011;8072;52.554;7.966;2024-03-02T01:24:32;7.37;;;4.53;;
15946;SDS011;8072;52.554;7.966;2024-03-02T01:26:59;6.63;;;5.03;;
15946;SDS011;8072;52.554;7.966;2024-03-02T01:29:25;7.93;;;5.27;;
15946;SDS011;8072;52.554;7.966;2024-03-02T01:31:50;7.47;;;5.30;;
15946;SDS011;8072;52.554;7.966;2024-03-02T01:34:18;7.07;;;5.03;;
15946;SDS011;8072;52.554;7.966;2024-03-02T01:36:44;6.83;;;4.70;;
15946;SDS011;8072;52.554;7.966;2024-03-02T01:39:10;9.67;;;5.60;;
15946;SDS011;8072;52.554;7.966;2024-03-02T01:41:35;6.73;;;4.80;;
15946;SDS011;8072;52.554;7.966;2024-03-02T01:44:01;8.63;;;5.73;;
15946;SDS011;8072;52.554;7.966;2024-03-02T01:46:27;7.83;;;5.20;;
15946;SDS011;8072;52.554;7.966;2024-03-02T01:48:53;7.47;;;5.50;;
15946;SDS011;8072;52.554;7.966;2024-03-02T01:51:20;8.13;;;5.67;;
15946;SDS011;8072;52.554;7.966;2024-03-02T01:53:45;8.40;;;5.40;;
15946;SDS011;8072;52.554;7.966;2024-03-02T01:56:11;7.10;;;5.10;;
15946;SDS011;8072;52.554;7.966;2024-03-02T01:58:37;9.23;;;5.97;;
15946;SDS011;8072;52.554;7.966;2024-03-02T02:01:03;7.67;;;5.33;;
15946;SDS011;8072;52.554;7.966;2024-03-02T02:03:29;10.23;;;5.43;;
15946;SDS011;8072;52.554;7.966;2024-03-02T02:05:55;9.73;;;5.60;;
15946;SDS011;8072;52.554;7.966;2024-03-02T02:08:21;7.97;;;5.87;;
15946;SDS011;8072;52.554;7.966;2024-03-02T02:10:47;8.37;;;6.20;;
15946;SDS011;8072;52.554;7.966;2024-03-02T02:13:13;10.63;;;6.13;;
15946;SDS011;8072;52.554;7.966;2024-03-02T02:15:38;8.13;;;5.63;;
15946;SDS011;8072;52.554;7.966;2024-03-02T02:18:04;9.87;;;6.03;;
15946;SDS011;8072;52.554;7.966;2024-03-02T02:20:31;12.30;;;6.30;;
15946;SDS011;8072;52.554;7.966;2024-03-02T02:22:58;14.07;;;7.03;;
15946;SDS011;8072;52.554;7.966;2024-03-02T02:25:28;10.90;;;6.60;;
15946;SDS011;8072;52.554;7.966;2024-03-02T02:27:55;10.67;;;6.47;;
15946;SDS011;8072;52.554;7.966;2024-03-02T02:30:25;10.00;;;6.67;;
15946;SDS011;8072;52.554;7.966;2024-03-02T02:32:52;12.90;;;7.13;;
15946;SDS011;8072;52.554;7.966;2024-03-02T02:35:18;11.57;;;7.10;;
15946;SDS011;8072;52.554;7.966;2024-03-02T02:37:45;10.50;;;6.47;;
15946;SDS011;8072;52.554;7.966;2024-03-02T02:40:11;11.40;;;6.73;;
15946;SDS011;8072;52.554;7.966;2024-03-02T02:42:38;10.67;;;6.70;;
15946;SDS011;8072;52.554;7.966;2024-03-02T02:45:05;13.53;;;7.27;;
15946;SDS011;8072;52.554;7.966;2024-03-02T02:47:31;10.57;;;6.57;;
15946;SDS011;8072;52.554;7.966;2024-03-02T02:50:01;11.00;;;7.40;;
15946;SDS011;8072;52.554;7.966;2024-03-02T02:52:32;13.23;;;7.97;;
15946;SDS011;8072;52.554;7.966;2024-03-02T02:55:04;9.60;;;6.67;;
15946;SDS011;8072;52.554;7.966;2024-03-02T02:57:32;11.83;;;7.27;;
15946;SDS011;8072;52.554;7.966;2024-03-02T03:00:07;12.67;;;7.37;;
15946;SDS011;8072;52.554;7.966;2024-03-02T03:02:40;11.30;;;7.03;;
15946;SDS011;8072;52.554;7.966;2024-03-02T03:05:07;10.13;;;6.67;;
15946;SDS011;8072;52.554;7.966;2024-03-02T03:07:34;11.70;;;7.30;;
15946;SDS011;8072;52.554;7.966;2024-03-02T03:10:02;10.47;;;6.93;;
15946;SDS011;8072;52.554;7.966;2024-03-02T03:12:29;10.77;;;7.00;;
15946;SDS011;8072;52.554;7.966;2024-03-02T03:14:58;13.37;;;7.60;;
15946;SDS011;8072;52.554;7.966;2024-03-02T03:17:26;11.67;;;6.90;;
15946;SDS011;8072;52.554;7.966;2024-03-02T03:19:54;11.90;;;7.73;;
15946;SDS011;8072;52.554;7.966;2024-03-02T03:22:20;12.23;;;7.17;;
15946;SDS011;8072;52.554;7.966;2024-03-02T03:24:46;12.77;;;7.47;;
15946;SDS011;8072;52.554;7.966;2024-03-02T03:27:12;11.47;;;7.40;;
15946;SDS011;8072;52.554;7.966;2024-03-02T03:29:37;11.40;;;7.10;;
15946;SDS011;8072;52.554;7.966;2024-03-02T03:32:03;12.37;;;7.43;;
15946;SDS011;8072;52.554;7.966;2024-03-02T03:34:34;11.67;;;7.60;;
15946;SDS011;8072;52.554;7.966;2024-03-02T03:37:00;11.87;;;7.00;;
15946;SDS011;8072;52.554;7.966;2024-03-02T03:39:25;14.43;;;8.47;;
15946;SDS011;8072;52.554;7.966;2024-03-02T03:41:51;13.47;;;8.43;;
15946;SDS011;8072;52.554;7.966;2024-03-02T03:44:18;12.70;;;7.73;;
15946;SDS011;8072;52.554;7.966;2024-03-02T03:46:44;15.57;;;8.13;;
15946;SDS011;8072;52.554;7.966;2024-03-02T03:49:09;11.90;;;7.20;;
15946;SDS011;8072;52.554;7.966;2024-03-02T03:51:35;11.53;;;7.33;;
15946;SDS011;8072;52.554;7.966;2024-03-02T03:54:02;12.53;;;7.90;;
15946;SDS011;8072;52.554;7.966;2024-03-02T03:56:29;12.30;;;7.63;;
15946;SDS011;8072;52.554;7.966;2024-03-02T03:58:55;13.40;;;8.10;;
15946;SDS011;8072;52.554;7.966;2024-03-02T04:01:21;14.60;;;8.10;;
15946;SDS011;8072;52.554;7.966;2024-03-02T04:03:47;14.17;;;8.27;;
15946;SDS011;8072;52.554;7.966;2024-03-02T04:06:13;14.47;;;8.13;;
15946;SDS011;8072;52.554;7.966;2024-03-02T04:08:41;11.03;;;7.13;;
15946;SDS011;8072;52.554;7.966;2024-03-02T04:11:08;12.87;;;8.50;;
15946;SDS011;8072;52.554;7.966;2024-03-02T04:13:43;13.17;;;7.47;;
15946;SDS011;8072;52.554;7.966;2024-03-02T04:16:09;11.37;;;7.10;;
15946;SDS011;8072;52.554;7.966;2024-03-02T04:18:35;13.37;;;8.20;;
15946;SDS011;8072;52.554;7.966;2024-03-02T04:21:01;11.73;;;7.27;;
15946;SDS011;8072;52.554;7.966;2024-03-02T04:23:30;12.67;;;7.13;;
15946;SDS011;8072;52.554;7.966;2024-03-02T04:25:56;12.33;;;7.87;;
15946;SDS011;8072;52.554;7.966;2024-03-02T04:28:22;11.50;;;7.57;;
15946;SDS011;8072;52.554;7.966;2024-03-02T04:30:48;10.67;;;6.83;;
15946;SDS011;8072;52.554;7.966;2024-03-02T04:33:14;10.13;;;6.77;;
15946;SDS011;8072;52.554;7.966;2024-03-02T04:35:40;11.43;;;7.13;;
15946;SDS011;8072;52.554;7.966;2024-03-02T04:38:07;10.77;;;6.90;;
15946;SDS011;8072;52.554;7.966;2024-03-02T04:40:34;12.60;;;7.73;;
15946;SDS011;8072;52.554;7.966;2024-03-02T04:42:59;12.23;;;6.97;;
15946;SDS011;8072;52.554;7.966;2024-03-02T04:45:25;11.40;;;7.50;;
15946;SDS011;8072;52.554;7.966;2024-03-02T04:47:51;10.97;;;7.13;;
15946;SDS011;8072;52.554;7.966;2024-03-02T04:50:17;11.10;;;7.00;;
15946;SDS011;8072;52.554;7.966;2024-03-02T04:52:43;11.77;;;7.03;;
15946;SDS011;8072;52.554;7.966;2024-03-02T04:55:10;9.90;;;6.40;;
15946;SDS011;8072;52.554;7.966;2024-03-02T04:57:54;9.83;;;6.30;;
15946;SDS011;8072;52.554;7.966;2024-03-02T05:00:21;11.33;;;6.90;;
15946;SDS011;8072;52.554;7.966;2024-03-02T05:02:47;12.57;;;7.17;;
15946;SDS011;8072;52.554;7.966;2024-03-02T05:05:13;10.40;;;6.83;;
15946;SDS011;8072;52.554;7.966;2024-03-02T05:07:40;10.97;;;7.00;;
15946;SDS011;8072;52.554;7.966;2024-03-02T05:10:07;9.60;;;6.80;;
15946;SDS011;8072;52.554;7.966;2024-03-02T05:12:34;9.47;;;6.63;;
15946;SDS011;8072;52.554;7.966;2024-03-02T05:15:21;10.63;;;6.80;;
15946;SDS011;8072;52.554;7.966;2024-03-02T05:17:47;11.20;;;7.33;;
15946;SDS011;8072;52.554;7.966;2024-03-02T05:20:13;11.13;;;7.27;;
15946;SDS011;8072;52.554;7.966;2024-03-02T05:22:39;11.37;;;7.13;;
15946;SDS011;8072;52.554;7.966;2024-03-02T05:25:05;10.43;;;6.80;;
15946;SDS011;8072;52.554;7.966;2024-03-02T05:27:32;12.40;;;6.97;;
15946;SDS011;8072;52.554;7.966;2024-03-02T05:29:58;10.40;;;6.60;;
15946;SDS011;8072;52.554;7.966;2024-03-02T05:32:24;9.73;;;6.50;;
15946;SDS011;8072;52.554;7.966;2024-03-02T05:34:50;10.03;;;6.30;;
15946;SDS011;8072;52.554;7.966;2024-03-02T05:37:16;10.43;;;6.63;;
15946;SDS011;8072;52.554;7.966;2024-03-02T05:39:42;10.30;;;6.40;;
15946;SDS011;8072;52.554;7.966;2024-03-02T05:42:11;8.60;;;5.93;;
15946;SDS011;8072;52.554;7.966;2024-03-02T05:44:36;10.07;;;6.13;;
15946;SDS011;8072;52.554;7.966;2024-03-02T05:47:02;8.73;;;5.83;;
15946;SDS011;8072;52.554;7.966;2024-03-02T05:49:29;10.43;;;5.83;;
15946;SDS011;8072;52.554;7.966;2024-03-02T05:51:55;8.97;;;6.03;;
15946;SDS011;8072;52.554;7.966;2024-03-02T05:54:20;9.47;;;6.50;;
15946;SDS011;8072;52.554;7.966;2024-03-02T05:56:46;10.73;;;6.03;;
15946;SDS011;8072;52.554;7.966;2024-03-02T05:59:12;9.83;;;6.43;;
15946;SDS011;8072;52.554;7.966;2024-03-02T06:01:38;10.00;;;6.10;;
15946;SDS011;8072;52.554;7.966;2024-03-02T06:04:09;10.03;;;6.10;;
15946;SDS011;8072;52.554;7.966;2024-03-02T06:06:36;9.23;;;6.57;;
15946;SDS011;8072;52.554;7.966;2024-03-02T06:09:02;11.73;;;6.80;;
15946;SDS011;8072;52.554;7.966;2024-03-02T06:11:37;9.43;;;5.83;;
15946;SDS011;8072;52.554;7.966;2024-03-02T06:14:04;9.97;;;6.27;;
15946;SDS011;8072;52.554;7.966;2024-03-02T06:16:30;10.37;;;6.77;;
15946;SDS011;8072;52.554;7.966;2024-03-02T06:18:57;8.17;;;5.83;;
15946;SDS011;8072;52.554;7.966;2024-03-02T06:21:23;8.40;;;5.90;;
15946;SDS011;8072;52.554;7.966;2024-03-02T06:23:49;11.53;;;6.13;;
15946;SDS011;8072;52.554;7.966;2024-03-02T06:26:15;8.27;;;5.83;;
15946;SDS011;8072;52.554;7.966;2024-03-02T06:28:41;10.23;;;6.40;;
15946;SDS011;8072;52.554;7.966;2024-03-02T06:31:08;9.30;;;5.63;;
15946;SDS011;8072;52.554;7.966;2024-03-02T06:33:34;10.87;;;6.50;;
15946;SDS011;8072;52.554;7.966;2024-03-02T06:35:59;11.23;;;6.60;;
15946;SDS011;8072;52.554;7.966;2024-03-02T06:38:25;10.30;;;6.53;;
15946;SDS011;8072;52.554;7.966;2024-03-02T06:40:51;9.07;;;6.53;;
15946;SDS011;8072;52.554;7.966;2024-03-02T06:43:17;8.90;;;6.43;;
15946;SDS011;8072;52.554;7.966;2024-03-02T06:45:43;11.30;;;6.90;;
15946;SDS011;8072;52.554;7.966;2024-03-02T06:48:09;9.83;;;6.67;;
15946;SDS011;8072;52.554;7.966;2024-03-02T06:50:34;10.33;;;6.60;;
15946;SDS011;8072;52.554;7.966;2024-03-02T06:53:00;10.27;;;6.57;;
15946;SDS011;8072;52.554;7.966;2024-03-02T06:55:27;11.03;;;7.07;;
15946;SDS011;8072;52.554;7.966;2024-03-02T06:57:53;12.00;;;7.30;;
15946;SDS011;8072;52.554;7.966;2024-03-02T07:00:19;10.93;;;7.80;;
15946;SDS011;8072;52.554;7.966;2024-03-02T07:02:46;13.70;;;8.40;;
15946;SDS011;8072;52.554;7.966;2024-03-02T07:05:11;11.73;;;7.90;;
15946;SDS011;8072;52.554;7.966;2024-03-02T07:07:37;11.80;;;7.37;;
15946;SDS011;8072;52.554;7.966;2024-03-02T07:10:04;11.27;;;7.50;;
15946;SDS011;8072;52.554;7.966;2024-03-02T07:12:30;10.97;;;7.33;;
15946;SDS011;8072;52.554;7.966;2024-03-02T07:14:56;12.90;;;7.97;;
15946;SDS011;8072;52.554;7.966;2024-03-02T07:17:28;12.20;;;7.40;;
15946;SDS011;8072;52.554;7.966;2024-03-02T07:19:54;12.37;;;7.73;;
15946;SDS011;8072;52.554;7.966;2024-03-02T07:22:20;12.33;;;8.17;;
15946;SDS011;8072;52.554;7.966;2024-03-02T07:24:46;12.10;;;7.37;;
15946;SDS011;8072;52.554;7.966;2024-03-02T07:27:12;11.20;;;7.23;;
15946;SDS011;8072;52.554;7.966;2024-03-02T07:29:39;13.07;;;7.83;;
15946;SDS011;8072;52.554;7.966;2024-03-02T07:32:06;12.00;;;8.10;;
15946;SDS011;8072;52.554;7.966;2024-03-02T07:34:33;16.00;;;8.57;;
15946;SDS011;8072;52.554;7.966;2024-03-02T07:36:58;14.20;;;8.50;;
15946;SDS011;8072;52.554;7.966;2024-03-02T07:39:24;14.93;;;9.47;;
15946;SDS011;8072;52.554;7.966;2024-03-02T07:41:50;17.20;;;9.87;;
15946;SDS011;8072;52.554;7.966;2024-03-02T07:44:16;14.80;;;9.43;;
15946;SDS011;8072;52.554;7.966;2024-03-02T07:46:45;15.33;;;9.20;;
15946;SDS011;8072;52.554;7.966;2024-03-02T07:49:11;15.73;;;10.27;;
15946;SDS011;8072;52.554;7.966;2024-03-02T07:51:40;17.53;;;9.97;;
15946;SDS011;8072;52.554;7.966;2024-03-02T07:54:06;18.90;;;10.10;;
15946;SDS011;8072;52.554;7.966;2024-03-02T07:56:32;18.63;;;10.13;;
15946;SDS011;8072;52.554;7.966;2024-03-02T07:58:59;16.13;;;9.60;;
15946;SDS011;8072;52.554;7.966;2024-03-02T08:01:29;19.17;;;9.93;;
15946;SDS011;8072;52.554;7.966;2024-03-02T08:04:00;14.70;;;9.20;;
15946;SDS011;8072;52.554;7.966;2024-03-02T08:06:28;15.33;;;9.80;;
15946;SDS011;8072;52.554;7.966;2024-03-02T08:08:54;17.90;;;9.93;;
15946;SDS011;8072;52.554;7.966;2024-03-02T08:11:22;16.50;;;9.90;;
15946;SDS011;8072;52.554;7.966;2024-03-02T08:13:49;15.07;;;9.30;;
15946;SDS011;8072;52.554;7.966;2024-03-02T08:16:18;16.70;;;9.07;;
15946;SDS011;8072;52.554;7.966;2024-03-02T08:18:49;15.90;;;9.60;;
15946;SDS011;8072;52.554;7.966;2024-03-02T08:21:16;16.20;;;9.87;;
15946;SDS011;8072;52.554;7.966;2024-03-02T08:23:42;16.20;;;9.67;;
15946;SDS011;8072;52.554;7.966;2024-03-02T08:26:08;15.20;;;10.20;;
15946;SDS011;8072;52.554;7.966;2024-03-02T08:28:35;16.53;;;9.67;;
15946;SDS011;8072;52.554;7.966;2024-03-02T08:31:05;17.10;;;9.23;;
15946;SDS011;8072;52.554;7.966;2024-03-02T08:33:32;14.97;;;8.47;;
15946;SDS011;8072;52.554;7.966;2024-03-02T08:35:58;14.63;;;9.40;;
15946;SDS011;8072;52.554;7.966;2024-03-02T08:38:24;12.37;;;8.10;;
15946;SDS011;8072;52.554;7.966;2024-03-02T08:40:50;14.77;;;8.20;;
15946;SDS011;8072;52.554;7.966;2024-03-02T08:43:16;11.43;;;7.47;;
15946;SDS011;8072;52.554;7.966;2024-03-02T08:45:42;13.67;;;7.83;;
15946;SDS011;8072;52.554;7.966;2024-03-02T08:48:09;12.43;;;7.90;;
15946;SDS011;8072;52.554;7.966;2024-03-02T08:50:35;11.33;;;7.57;;
15946;SDS011;8072;52.554;7.966;2024-03-02T08:53:01;13.77;;;8.17;;
15946;SDS011;8072;52.554;7.966;2024-03-02T08:55:28;12.03;;;7.43;;
15946;SDS011;8072;52.554;7.966;2024-03-02T08:57:53;11.63;;;8.17;;
15946;SDS011;8072;52.554;7.966;2024-03-02T09:00:19;11.40;;;7.23;;
15946;SDS011;8072;52.554;7.966;2024-03-02T09:02:45;12.13;;;7.80;;
15946;SDS011;8072;52.554;7.966;2024-03-02T09:05:11;11.07;;;7.50;;
15946;SDS011;8072;52.554;7.966;2024-03-02T09:07:37;11.33;;;7.40;;
15946;SDS011;8072;52.554;7.966;2024-03-02T09:10:06;11.83;;;7.37;;
15946;SDS011;8072;52.554;7.966;2024-03-02T09:12:32;12.57;;;7.53;;
15946;SDS011;8072;52.554;7.966;2024-03-02T09:15:00;12.27;;;7.47;;
15946;SDS011;8072;52.554;7.966;2024-03-02T09:17:26;10.33;;;7.00;;
15946;SDS011;8072;52.554;7.966;2024-03-02T09:19:52;11.33;;;6.87;;
15946;SDS011;8072;52.554;7.966;2024-03-02T09:22:19;12.83;;;6.63;;
15946;SDS011;8072;52.554;7.966;2024-03-02T09:24:44;8.73;;;6.00;;
15946;SDS011;8072;52.554;7.966;2024-03-02T09:27:10;9.83;;;6.47;;
15946;SDS011;8072;52.554;7.966;2024-03-02T09:29:36;10.30;;;6.37;;
15946;SDS011;8072;52.554;7.966;2024-03-02T09:32:05;9.37;;;6.70;;
15946;SDS011;8072;52.554;7.966;2024-03-02T09:34:31;11.27;;;6.60;;
15946;SDS011;8072;52.554;7.966;2024-03-02T09:36:57;8.93;;;5.83;;
15946;SDS011;8072;52.554;7.966;2024-03-02T09:39:23;9.23;;;5.27;;
15946;SDS011;8072;52.554;7.966;2024-03-02T09:41:50;7.93;;;5.83;;
15946;SDS011;8072;52.554;7.966;2024-03-02T09:44:16;9.20;;;5.10;;
15946;SDS011;8072;52.554;7.966;2024-03-02T09:46:43;8.13;;;5.03;;
15946;SDS011;8072;52.554;7.966;2024-03-02T09:49:12;5.60;;;3.50;;
15946;SDS011;8072;52.554;7.966;2024-03-02T09:51:38;6.00;;;4.20;;
15946;SDS011;8072;52.554;7.966;2024-03-02T09:54:05;7.23;;;4.03;;
15946;SDS011;8072;52.554;7.966;2024-03-02T09:56:33;6.43;;;3.70;;
15946;SDS011;8072;52.554;7.966;2024-03-02T09:58:59;4.53;;;3.23;;
15946;SDS011;8072;52.554;7.966;2024-03-02T10:01:25;6.80;;;3.67;;
15946;SDS011;8072;52.554;7.966;2024-03-02T10:03:51;6.30;;;3.20;;
15946;SDS011;8072;52.554;7.966;2024-03-02T10:06:24;5.03;;;2.97;;
15946;SDS011;8072;52.554;7.966;2024-03-02T10:08:52;5.83;;;3.27;;
15946;SDS011;8072;52.554;7.966;2024-03-02T10:11:25;7.43;;;3.60;;
15946;SDS011;8072;52.554;7.966;2024-03-02T10:16:39;6.37;;;2.63;;
15946;SDS011;8072;52.554;7.966;2024-03-02T10:19:24;7.60;;;3.30;;
15946;SDS011;8072;52.554;7.966;2024-03-02T10:21:52;5.00;;;2.63;;
15946;SDS011;8072;52.554;7.966;2024-03-02T10:24:19;4.67;;;2.83;;
15946;SDS011;8072;52.554;7.966;2024-03-02T10:26:46;4.73;;;2.93;;
15946;SDS011;8072;52.554;7.966;2024-03-02T10:29:12;4.93;;;3.10;;
15946;SDS011;8072;52.554;7.966;2024-03-02T10:31:39;4.20;;;3.03;;
15946;SDS011;8072;52.554;7.966;2024-03-02T10:34:09;4.30;;;2.43;;
15946;SDS011;8072;52.554;7.966;2024-03-02T10:36:36;3.77;;;2.37;;
15946;SDS011;8072;52.554;7.966;2024-03-02T10:39:05;6.10;;;3.40;;
15946;SDS011;8072;52.554;7.966;2024-03-02T10:41:33;4.57;;;2.43;;
15946;SDS011;8072;52.554;7.966;2024-03-02T10:44:07;2.80;;;2.40;;
15946;SDS011;8072;52.554;7.966;2024-03-02T10:46:35;5.43;;;2.57;;
15946;SDS011;8072;52.554;7.966;2024-03-02T10:49:03;4.37;;;2.87;;
15946;SDS011;8072;52.554;7.966;2024-03-02T10:51:31;4.20;;;2.50;;
15946;SDS011;8072;52.554;7.966;2024-03-02T10:53:59;3.87;;;2.70;;
15946;SDS011;8072;52.554;7.966;2024-03-02T10:56:32;4.03;;;2.57;;
15946;SDS011;8072;52.554;7.966;2024-03-02T10:59:03;2.97;;;2.03;;
15946;SDS011;8072;52.554;7.966;2024-03-02T11:01:42;4.57;;;2.50;;
15946;SDS011;8072;52.554;7.966;2024-03-02T11:04:10;3.83;;;2.40;;
15946;SDS011;8072;52.554;7.966;2024-03-02T11:06:38;3.03;;;2.60;;
15946;SDS011;8072;52.554;7.966;2024-03-02T11:09:11;3.93;;;2.60;;
15946;SDS011;8072;52.554;7.966;2024-03-02T11:11:40;4.23;;;2.80;;
15946;SDS011;8072;52.554;7.966;2024-03-02T11:14:10;3.13;;;2.37;;
15946;SDS011;8072;52.554;7.966;2024-03-02T11:16:40;2.93;;;2.37;;
15946;SDS011;8072;52.554;7.966;2024-03-02T11:19:13;3.30;;;2.40;;
15946;SDS011;8072;52.554;7.966;2024-03-02T11:21:40;2.53;;;2.30;;
15946;SDS011;8072;52.554;7.966;2024-03-02T11:26:52;3.30;;;2.60;;
15946;SDS011;8072;52.554;7.966;2024-03-02T11:32:04;3.37;;;2.77;;
15946;SDS011;8072;52.554;7.966;2024-03-02T11:34:32;4.83;;;3.10;;
15946;SDS011;8072;52.554;7.966;2024-03-02T11:36:58;3.70;;;2.80;;
15946;SDS011;8072;52.554;7.966;2024-03-02T11:39:26;3.93;;;2.57;;
15946;SDS011;8072;52.554;7.966;2024-03-02T11:41:52;3.20;;;2.60;;
15946;SDS011;8072;52.554;7.966;2024-03-02T11:44:19;3.87;;;2.63;;
15946;SDS011;8072;52.554;7.966;2024-03-02T11:46:46;4.77;;;2.90;;
15946;SDS011;8072;52.554;7.966;2024-03-02T11:52:09;5.90;;;2.37;;
15946;SDS011;8072;52.554;7.966;2024-03-02T11:54:39;4.37;;;2.70;;
15946;SDS011;8072;52.554;7.966;2024-03-02T11:57:17;4.20;;;2.70;;
15946;SDS011;8072;52.554;7.966;2024-03-02T11:59:47;5.67;;;2.80;;
15946;SDS011;8072;52.554;7.966;2024-03-02T12:02:17;4.10;;;2.80;;
15946;SDS011;8072;52.554;7.966;2024-03-02T12:04:47;3.53;;;2.57;;
15946;SDS011;8072;52.554;7.966;2024-03-02T12:07:20;8.70;;;3.40;;
15946;SDS011;8072;52.554;7.966;2024-03-02T12:09:48;4.30;;;2.70;;
15946;SDS011;8072;52.554;7.966;2024-03-02T12:12:24;4.90;;;3.30;;
15946;SDS011;8072;52.554;7.966;2024-03-02T12:14:51;3.77;;;2.83;;
15946;SDS011;8072;52.554;7.966;2024-03-02T12:17:18;3.77;;;2.50;;
15946;SDS011;8072;52.554;7.966;2024-03-02T12:19:44;4.27;;;2.93;;
15946;SDS011;8072;52.554;7.966;2024-03-02T12:22:11;4.70;;;2.70;;
15946;SDS011;8072;52.554;7.966;2024-03-02T12:24:37;4.17;;;2.83;;
15946;SDS011;8072;52.554;7.966;2024-03-02T12:27:03;4.13;;;3.20;;
15946;SDS011;8072;52.554;7.966;2024-03-02T12:29:30;3.67;;;3.10;;
15946;SDS011;8072;52.554;7.966;2024-03-02T12:31:56;3.43;;;2.90;;
15946;SDS011;8072;52.554;7.966;2024-03-02T12:34:22;4.40;;;2.93;;
15946;SDS011;8072;52.554;7.966;2024-03-02T12:36:48;4.70;;;3.17;;
15946;SDS011;8072;52.554;7.966;2024-03-02T12:39:18;4.07;;;2.83;;
15946;SDS011;8072;52.554;7.966;2024-03-02T12:41:44;3.63;;;2.90;;
15946;SDS011;8072;52.554;7.966;2024-03-02T12:44:11;6.07;;;2.70;;
15946;SDS011;8072;52.554;7.966;2024-03-02T12:46:37;4.53;;;2.70;;
15946;SDS011;8072;52.554;7.966;2024-03-02T12:49:10;3.93;;;2.43;;
15946;SDS011;8072;52.554;7.966;2024-03-02T12:51:40;4.13;;;2.30;;
15946;SDS011;8072;52.554;7.966;2024-03-02T12:54:07;5.63;;;2.57;;
15946;SDS011;8072;52.554;7.966;2024-03-02T12:56:35;3.10;;;2.20;;
15946;SDS011;8072;52.554;7.966;2024-03-02T12:59:01;4.57;;;2.50;;
15946;SDS011;8072;52.554;7.966;2024-03-02T13:01:27;5.73;;;2.50;;
15946;SDS011;8072;52.554;7.966;2024-03-02T13:03:53;3.90;;;2.53;;
15946;SDS011;8072;52.554;7.966;2024-03-02T13:06:22;2.93;;;2.27;;
15946;SDS011;8072;52.554;7.966;2024-03-02T13:08:49;3.30;;;2.50;;
15946;SDS011;8072;52.554;7.966;2024-03-02T13:11:16;4.23;;;2.40;;
15946;SDS011;8072;52.554;7.966;2024-03-02T13:13:42;4.07;;;2.60;;
15946;SDS011;8072;52.554;7.966;2024-03-02T13:16:08;3.17;;;2.60;;
15946;SDS011;8072;52.554;7.966;2024-03-02T13:18:38;3.43;;;2.47;;
15946;SDS011;8072;52.554;7.966;2024-03-02T13:21:08;3.47;;;2.80;;
15946;SDS011;8072;52.554;7.966;2024-03-02T13:23:35;4.07;;;2.50;;
15946;SDS011;8072;52.554;7.966;2024-03-02T13:26:01;4.80;;;3.30;;
15946;SDS011;8072;52.554;7.966;2024-03-02T13:28:27;3.90;;;2.63;;
15946;SDS011;8072;52.554;7.966;2024-03-02T13:30:53;3.97;;;2.80;;
15946;SDS011;8072;52.554;7.966;2024-03-02T13:33:19;3.23;;;2.80;;
15946;SDS011;8072;52.554;7.966;2024-03-02T13:35:51;3.80;;;3.00;;
15946;SDS011;8072;52.554;7.966;2024-03-02T13:38:17;4.07;;;3.27;;
15946;SDS011;8072;52.554;7.966;2024-03-02T13:40:48;4.10;;;3.30;;
15946;SDS011;8072;52.554;7.966;2024-03-02T13:43:16;4.40;;;3.30;;
15946;SDS011;8072;52.554;7.966;2024-03-02T13:45:43;3.23;;;2.90;;
15946;SDS011;8072;52.554;7.966;2024-03-02T13:48:09;4.80;;;3.13;;
15946;SDS011;8072;52.554;7.966;2024-03-02T13:50:35;3.70;;;3.10;;
15946;SDS011;8072;52.554;7.966;2024-03-02T13:53:00;5.33;;;3.37;;
15946;SDS011;8072;52.554;7.966;2024-03-02T13:55:28;4.20;;;2.90;;
15946;SDS011;8072;52.554;7.966;2024-03-02T13:57:53;3.17;;;2.50;;
15946;SDS011;8072;52.554;7.966;2024-03-02T14:00:19;4.80;;;3.23;;
15946;SDS011;8072;52.554;7.966;2024-03-02T14:02:45;4.53;;;3.30;;
15946;SDS011;8072;52.554;7.966;2024-03-02T14:05:12;3.67;;;2.67;;
15946;SDS011;8072;52.554;7.966;2024-03-02T14:07:39;4.43;;;3.03;;
15946;SDS011;8072;52.554;7.966;2024-03-02T14:10:05;4.20;;;2.57;;
15946;SDS011;8072;52.554;7.966;2024-03-02T14:12:32;3.20;;;2.67;;
15946;SDS011;8072;52.554;7.966;2024-03-02T14:14:58;2.53;;;2.33;;
15946;SDS011;8072;52.554;7.966;2024-03-02T14:17:27;2.57;;;2.37;;
15946;SDS011;8072;52.554;7.966;2024-03-02T14:19:54;3.30;;;2.30;;
15946;SDS011;8072;52.554;7.966;2024-03-02T14:22:20;3.73;;;2.50;;
15946;SDS011;8072;52.554;7.966;2024-03-02T14:24:46;4.03;;;2.90;;
15946;SDS011;8072;52.554;7.966;2024-03-02T14:27:14;4.10;;;2.90;;
15946;SDS011;8072;52.554;7.966;2024-03-02T14:29:40;4.00;;;3.13;;
15946;SDS011;8072;52.554;7.966;2024-03-02T14:32:08;3.40;;;2.67;;
15946;SDS011;8072;52.554;7.966;2024-03-02T14:34:34;4.33;;;2.70;;
15946;SDS011;8072;52.554;7.966;2024-03-02T14:37:01;3.97;;;2.97;;
15946;SDS011;8072;52.554;7.966;2024-03-02T14:39:28;3.17;;;2.87;;
15946;SDS011;8072;52.554;7.966;2024-03-02T14:41:54;5.17;;;3.13;;
15946;SDS011;8072;52.554;7.966;2024-03-02T14:44:23;3.73;;;2.43;;
15946;SDS011;8072;52.554;7.966;2024-03-02T14:46:49;3.67;;;2.77;;
15946;SDS011;8072;52.554;7.966;2024-03-02T14:49:15;3.70;;;2.60;;
15946;SDS011;8072;52.554;7.966;2024-03-02T14:51:41;5.20;;;2.83;;
15946;SDS011;8072;52.554;7.966;2024-03-02T14:54:07;3.40;;;2.60;;
15946;SDS011;8072;52.554;7.966;2024-03-02T14:56:33;5.10;;;3.50;;
15946;SDS011;8072;52.554;7.966;2024-03-02T14:58:59;4.63;;;2.53;;
15946;SDS011;8072;52.554;7.966;2024-03-02T15:01:25;3.60;;;2.70;;
15946;SDS011;8072;52.554;7.966;2024-03-02T15:03:50;3.20;;;2.57;;
15946;SDS011;8072;52.554;7.966;2024-03-02T15:06:17;3.17;;;2.73;;
15946;SDS011;8072;52.554;7.966;2024-03-02T15:08:43;3.07;;;2.47;;
15946;SDS011;8072;52.554;7.966;2024-03-02T15:11:12;3.43;;;2.30;;
15946;SDS011;8072;52.554;7.966;2024-03-02T15:13:38;4.33;;;2.63;;